sensor_id;sensor_type;location;lat;lon;timestamp;P1;durP1;ratioP1;P2;durP2;ratioP2
18503;SDS011;9381;54.244;10.074;2022-12-29T00:04:33;9.38;;;7.80;;
18503;SDS011;9381;54.244;10.074;2022-12-29T00:09:34;9.53;;;8.17;;
18503;SDS011;9381;54.244;10.074;2022-12-29T00:14:35;10.80;;;9.33;;
18503;SDS011;9381;54.244;10.074;2022-12-29T00:19:54;10.97;;;9.57;;
18503;SDS011;9381;54.244;10.074;2022-12-29T00:25:13;12.23;;;10.93;;
18503;SDS011;9381;54.244;10.074;2022-12-29T00:30:32;12.73;;;11.10;;
18503;SDS011;9381;54.244;10.074;2022-12-29T00:35:52;14.23;;;11.37;;
18503;SDS011;9381;54.244;10.074;2022-12-29T00:40:58;12.87;;;10.97;;
18503;SDS011;9381;54.244;10.074;2022-12-29T00:46:17;14.10;;;12.03;;
18503;SDS011;9381;54.244;10.074;2022-12-29T00:51:17;13.07;;;11.83;;
18503;SDS011;9381;54.244;10.074;2022-12-29T00:56:18;14.25;;;12.77;;
18503;SDS011;9381;54.244;10.074;2022-12-29T01:01:18;15.17;;;13.07;;
18503;SDS011;9381;54.244;10.074;2022-12-29T01:06:18;15.55;;;13.95;;
18503;SDS011;9381;54.244;10.074;2022-12-29T01:11:19;15.50;;;13.90;;
18503;SDS011;9381;54.244;10.074;2022-12-29T01:16:19;15.57;;;13.97;;
18503;SDS011;9381;54.244;10.074;2022-12-29T01:21:19;16.67;;;14.87;;
18503;SDS011;9381;54.244;10.074;2022-12-29T01:26:20;16.40;;;14.73;;
18503;SDS011;9381;54.244;10.074;2022-12-29T01:31:20;15.70;;;13.87;;
18503;SDS011;9381;54.244;10.074;2022-12-29T01:36:21;16.50;;;14.63;;
18503;SDS011;9381;54.244;10.074;2022-12-29T01:41:21;15.57;;;13.97;;
18503;SDS011;9381;54.244;10.074;2022-12-29T01:51:58;14.83;;;13.43;;
18503;SDS011;9381;54.244;10.074;2022-12-29T01:57:03;14.07;;;12.63;;
18503;SDS011;9381;54.244;10.074;2022-12-29T02:02:08;15.07;;;13.47;;
18503;SDS011;9381;54.244;10.074;2022-12-29T02:07:09;14.13;;;12.73;;
18503;SDS011;9381;54.244;10.074;2022-12-29T02:12:14;14.70;;;13.30;;
18503;SDS011;9381;54.244;10.074;2022-12-29T02:22:50;14.10;;;12.67;;
18503;SDS011;9381;54.244;10.074;2022-12-29T02:39:01;13.53;;;12.23;;
18503;SDS011;9381;54.244;10.074;2022-12-29T02:44:12;14.33;;;13.03;;
18503;SDS011;9381;54.244;10.074;2022-12-29T02:49:25;15.17;;;13.40;;
18503;SDS011;9381;54.244;10.074;2022-12-29T02:54:36;13.77;;;12.43;;
18503;SDS011;9381;54.244;10.074;2022-12-29T02:59:42;14.23;;;12.93;;
18503;SDS011;9381;54.244;10.074;2022-12-29T03:04:58;16.53;;;13.97;;
18503;SDS011;9381;54.244;10.074;2022-12-29T03:15:36;13.67;;;12.27;;
18503;SDS011;9381;54.244;10.074;2022-12-29T03:21:03;14.87;;;13.37;;
18503;SDS011;9381;54.244;10.074;2022-12-29T03:26:11;14.83;;;13.27;;
18503;SDS011;9381;54.244;10.074;2022-12-29T03:31:13;13.75;;;12.10;;
18503;SDS011;9381;54.244;10.074;2022-12-29T03:36:17;15.47;;;13.83;;
18503;SDS011;9381;54.244;10.074;2022-12-29T03:41:29;14.60;;;12.93;;
18503;SDS011;9381;54.244;10.074;2022-12-29T03:46:31;14.17;;;12.87;;
18503;SDS011;9381;54.244;10.074;2022-12-29T03:51:31;14.32;;;12.93;;
18503;SDS011;9381;54.244;10.074;2022-12-29T03:56:32;13.77;;;12.47;;
18503;SDS011;9381;54.244;10.074;2022-12-29T04:01:32;13.60;;;12.30;;
18503;SDS011;9381;54.244;10.074;2022-12-29T04:06:32;13.00;;;11.80;;
18503;SDS011;9381;54.244;10.074;2022-12-29T04:11:33;13.40;;;12.10;;
18503;SDS011;9381;54.244;10.074;2022-12-29T04:16:33;13.50;;;12.10;;
18503;SDS011;9381;54.244;10.074;2022-12-29T04:21:35;13.00;;;11.73;;
18503;SDS011;9381;54.244;10.074;2022-12-29T04:26:35;12.63;;;11.37;;
18503;SDS011;9381;54.244;10.074;2022-12-29T04:31:36;12.88;;;11.63;;
18503;SDS011;9381;54.244;10.074;2022-12-29T04:36:36;12.85;;;11.68;;
18503;SDS011;9381;54.244;10.074;2022-12-29T04:41:36;11.17;;;10.07;;
18503;SDS011;9381;54.244;10.074;2022-12-29T04:46:37;11.80;;;10.70;;
18503;SDS011;9381;54.244;10.074;2022-12-29T04:51:37;11.60;;;10.40;;
18503;SDS011;9381;54.244;10.074;2022-12-29T04:56:37;11.27;;;10.18;;
18503;SDS011;9381;54.244;10.074;2022-12-29T05:01:37;11.45;;;10.18;;
18503;SDS011;9381;54.244;10.074;2022-12-29T05:06:38;14.90;;;10.57;;
18503;SDS011;9381;54.244;10.074;2022-12-29T05:11:38;10.20;;;9.30;;
18503;SDS011;9381;54.244;10.074;2022-12-29T05:16:38;10.13;;;9.15;;
18503;SDS011;9381;54.244;10.074;2022-12-29T05:21:38;9.73;;;8.82;;
18503;SDS011;9381;54.244;10.074;2022-12-29T05:26:39;9.87;;;8.97;;
18503;SDS011;9381;54.244;10.074;2022-12-29T05:31:39;9.35;;;8.45;;
18503;SDS011;9381;54.244;10.074;2022-12-29T05:36:39;10.15;;;9.15;;
18503;SDS011;9381;54.244;10.074;2022-12-29T05:41:40;9.77;;;8.90;;
18503;SDS011;9381;54.244;10.074;2022-12-29T05:46:40;8.43;;;7.68;;
18503;SDS011;9381;54.244;10.074;2022-12-29T05:51:40;8.27;;;7.57;;
18503;SDS011;9381;54.244;10.074;2022-12-29T05:56:40;7.88;;;7.18;;
18503;SDS011;9381;54.244;10.074;2022-12-29T06:01:41;7.03;;;6.50;;
18503;SDS011;9381;54.244;10.074;2022-12-29T06:06:41;6.72;;;6.13;;
18503;SDS011;9381;54.244;10.074;2022-12-29T06:11:42;6.83;;;6.13;;
18503;SDS011;9381;54.244;10.074;2022-12-29T06:16:42;6.83;;;6.23;;
18503;SDS011;9381;54.244;10.074;2022-12-29T06:21:43;7.32;;;5.93;;
18503;SDS011;9381;54.244;10.074;2022-12-29T06:26:43;5.50;;;5.05;;
18503;SDS011;9381;54.244;10.074;2022-12-29T06:31:44;5.85;;;5.35;;
18503;SDS011;9381;54.244;10.074;2022-12-29T06:36:48;5.73;;;5.23;;
18503;SDS011;9381;54.244;10.074;2022-12-29T06:41:51;6.20;;;5.70;;
18503;SDS011;9381;54.244;10.074;2022-12-29T06:46:52;6.80;;;6.20;;
18503;SDS011;9381;54.244;10.074;2022-12-29T06:51:52;7.05;;;5.93;;
18503;SDS011;9381;54.244;10.074;2022-12-29T06:56:53;5.65;;;5.15;;
18503;SDS011;9381;54.244;10.074;2022-12-29T07:01:53;6.53;;;5.90;;
18503;SDS011;9381;54.244;10.074;2022-12-29T07:06:55;6.47;;;5.87;;
18503;SDS011;9381;54.244;10.074;2022-12-29T07:11:55;6.38;;;5.88;;
18503;SDS011;9381;54.244;10.074;2022-12-29T07:16:55;5.90;;;5.40;;
18503;SDS011;9381;54.244;10.074;2022-12-29T07:21:56;5.95;;;5.35;;
18503;SDS011;9381;54.244;10.074;2022-12-29T07:26:56;4.80;;;4.40;;
18503;SDS011;9381;54.244;10.074;2022-12-29T07:31:56;4.40;;;4.00;;
18503;SDS011;9381;54.244;10.074;2022-12-29T07:36:57;6.07;;;4.27;;
18503;SDS011;9381;54.244;10.074;2022-12-29T07:41:57;6.97;;;3.58;;
18503;SDS011;9381;54.244;10.074;2022-12-29T07:46:57;4.17;;;3.50;;
18503;SDS011;9381;54.244;10.074;2022-12-29T07:51:58;3.97;;;3.00;;
18503;SDS011;9381;54.244;10.074;2022-12-29T07:56:58;4.83;;;2.93;;
18503;SDS011;9381;54.244;10.074;2022-12-29T08:02:00;4.60;;;3.07;;
18503;SDS011;9381;54.244;10.074;2022-12-29T08:07:01;4.10;;;2.57;;
18503;SDS011;9381;54.244;10.074;2022-12-29T08:12:01;9.13;;;2.10;;
18503;SDS011;9381;54.244;10.074;2022-12-29T08:17:01;4.10;;;1.63;;
18503;SDS011;9381;54.244;10.074;2022-12-29T08:22:02;7.33;;;2.30;;
18503;SDS011;9381;54.244;10.074;2022-12-29T08:27:02;4.13;;;1.60;;
18503;SDS011;9381;54.244;10.074;2022-12-29T08:32:03;2.70;;;1.90;;
18503;SDS011;9381;54.244;10.074;2022-12-29T08:37:03;4.07;;;1.97;;
18503;SDS011;9381;54.244;10.074;2022-12-29T08:42:03;5.22;;;1.80;;
18503;SDS011;9381;54.244;10.074;2022-12-29T08:47:04;6.80;;;1.90;;
18503;SDS011;9381;54.244;10.074;2022-12-29T08:52:05;6.60;;;1.93;;
18503;SDS011;9381;54.244;10.074;2022-12-29T08:57:05;4.03;;;1.90;;
18503;SDS011;9381;54.244;10.074;2022-12-29T09:02:05;3.70;;;2.17;;
18503;SDS011;9381;54.244;10.074;2022-12-29T09:07:06;3.60;;;1.90;;
18503;SDS011;9381;54.244;10.074;2022-12-29T09:12:06;5.43;;;2.00;;
18503;SDS011;9381;54.244;10.074;2022-12-29T09:17:06;2.50;;;1.53;;
18503;SDS011;9381;54.244;10.074;2022-12-29T09:22:25;7.70;;;1.77;;
18503;SDS011;9381;54.244;10.074;2022-12-29T09:27:26;5.80;;;2.00;;
18503;SDS011;9381;54.244;10.074;2022-12-29T09:32:26;4.87;;;1.70;;
18503;SDS011;9381;54.244;10.074;2022-12-29T09:37:27;6.47;;;1.37;;
18503;SDS011;9381;54.244;10.074;2022-12-29T09:47:55;6.07;;;1.80;;
18503;SDS011;9381;54.244;10.074;2022-12-29T09:58:00;6.03;;;2.10;;
18503;SDS011;9381;54.244;10.074;2022-12-29T10:08:26;7.10;;;1.60;;
18503;SDS011;9381;54.244;10.074;2022-12-29T10:24:18;9.77;;;2.13;;
18503;SDS011;9381;54.244;10.074;2022-12-29T10:29:25;5.73;;;1.73;;
18503;SDS011;9381;54.244;10.074;2022-12-29T10:34:39;6.37;;;2.10;;
18503;SDS011;9381;54.244;10.074;2022-12-29T10:39:49;4.70;;;1.87;;
18503;SDS011;9381;54.244;10.074;2022-12-29T10:44:55;6.00;;;1.87;;
18503;SDS011;9381;54.244;10.074;2022-12-29T10:49:57;9.70;;;2.17;;
18503;SDS011;9381;54.244;10.074;2022-12-29T11:00:18;7.23;;;2.10;;
18503;SDS011;9381;54.244;10.074;2022-12-29T11:15:43;7.30;;;1.73;;
18503;SDS011;9381;54.244;10.074;2022-12-29T11:20:49;5.63;;;2.13;;
18503;SDS011;9381;54.244;10.074;2022-12-29T11:31:15;6.37;;;2.20;;
18503;SDS011;9381;54.244;10.074;2022-12-29T11:36:19;10.77;;;1.93;;
18503;SDS011;9381;54.244;10.074;2022-12-29T11:41:23;9.30;;;2.10;;
18503;SDS011;9381;54.244;10.074;2022-12-29T11:46:27;10.33;;;2.53;;
18503;SDS011;9381;54.244;10.074;2022-12-29T11:51:38;6.77;;;1.83;;
18503;SDS011;9381;54.244;10.074;2022-12-29T11:56:45;6.70;;;2.33;;
18503;SDS011;9381;54.244;10.074;2022-12-29T12:01:46;10.47;;;2.47;;
18503;SDS011;9381;54.244;10.074;2022-12-29T12:06:49;10.63;;;2.87;;
18503;SDS011;9381;54.244;10.074;2022-12-29T12:12:02;8.33;;;2.50;;
18503;SDS011;9381;54.244;10.074;2022-12-29T12:17:12;6.33;;;2.20;;
18503;SDS011;9381;54.244;10.074;2022-12-29T12:27:41;5.57;;;1.83;;
18503;SDS011;9381;54.244;10.074;2022-12-29T12:43:25;8.63;;;2.37;;
18503;SDS011;9381;54.244;10.074;2022-12-29T12:59:43;8.80;;;2.33;;
18503;SDS011;9381;54.244;10.074;2022-12-29T13:05:16;9.43;;;2.20;;
18503;SDS011;9381;54.244;10.074;2022-12-29T13:15:49;12.03;;;2.23;;
18503;SDS011;9381;54.244;10.074;2022-12-29T13:21:17;8.30;;;2.33;;
18503;SDS011;9381;54.244;10.074;2022-12-29T13:27:11;8.10;;;2.53;;
18503;SDS011;9381;54.244;10.074;2022-12-29T13:32:15;9.10;;;2.20;;
18503;SDS011;9381;54.244;10.074;2022-12-29T13:37:18;8.30;;;2.50;;
18503;SDS011;9381;54.244;10.074;2022-12-29T13:42:24;9.13;;;2.47;;
18503;SDS011;9381;54.244;10.074;2022-12-29T13:47:36;5.47;;;2.13;;
18503;SDS011;9381;54.244;10.074;2022-12-29T14:08:31;8.13;;;2.27;;
18503;SDS011;9381;54.244;10.074;2022-12-29T14:13:36;9.70;;;2.43;;
18503;SDS011;9381;54.244;10.074;2022-12-29T14:18:43;8.83;;;2.13;;
18503;SDS011;9381;54.244;10.074;2022-12-29T14:23:48;11.37;;;2.10;;
18503;SDS011;9381;54.244;10.074;2022-12-29T14:28:50;8.00;;;2.13;;
18503;SDS011;9381;54.244;10.074;2022-12-29T14:44:32;13.87;;;3.30;;
18503;SDS011;9381;54.244;10.074;2022-12-29T14:49:40;12.97;;;2.43;;
18503;SDS011;9381;54.244;10.074;2022-12-29T14:54:45;8.33;;;2.27;;
18503;SDS011;9381;54.244;10.074;2022-12-29T14:59:55;12.23;;;2.97;;
18503;SDS011;9381;54.244;10.074;2022-12-29T15:05:00;11.03;;;2.70;;
18503;SDS011;9381;54.244;10.074;2022-12-29T15:10:07;13.97;;;3.47;;
18503;SDS011;9381;54.244;10.074;2022-12-29T15:15:22;12.20;;;3.33;;
18503;SDS011;9381;54.244;10.074;2022-12-29T15:20:26;10.53;;;2.77;;
18503;SDS011;9381;54.244;10.074;2022-12-29T15:25:31;11.47;;;2.53;;
18503;SDS011;9381;54.244;10.074;2022-12-29T15:30:32;11.53;;;3.47;;
18503;SDS011;9381;54.244;10.074;2022-12-29T15:35:34;11.23;;;2.73;;
18503;SDS011;9381;54.244;10.074;2022-12-29T15:40:36;11.67;;;2.70;;
18503;SDS011;9381;54.244;10.074;2022-12-29T15:45:36;11.13;;;2.97;;
18503;SDS011;9381;54.244;10.074;2022-12-29T15:50:37;13.43;;;2.60;;
18503;SDS011;9381;54.244;10.074;2022-12-29T15:55:40;16.90;;;2.50;;
18503;SDS011;9381;54.244;10.074;2022-12-29T16:00:45;15.23;;;3.03;;
18503;SDS011;9381;54.244;10.074;2022-12-29T16:06:06;11.90;;;3.20;;
18503;SDS011;9381;54.244;10.074;2022-12-29T16:11:30;11.33;;;2.67;;
18503;SDS011;9381;54.244;10.074;2022-12-29T16:16:38;9.93;;;2.37;;
18503;SDS011;9381;54.244;10.074;2022-12-29T16:21:41;13.37;;;3.30;;
18503;SDS011;9381;54.244;10.074;2022-12-29T16:26:49;14.87;;;2.77;;
18503;SDS011;9381;54.244;10.074;2022-12-29T16:32:02;11.03;;;2.60;;
18503;SDS011;9381;54.244;10.074;2022-12-29T16:37:32;8.87;;;2.90;;
18503;SDS011;9381;54.244;10.074;2022-12-29T16:47:43;11.97;;;2.67;;
18503;SDS011;9381;54.244;10.074;2022-12-29T16:52:45;14.83;;;2.90;;
18503;SDS011;9381;54.244;10.074;2022-12-29T16:57:49;14.07;;;3.27;;
18503;SDS011;9381;54.244;10.074;2022-12-29T17:02:54;10.67;;;2.63;;
18503;SDS011;9381;54.244;10.074;2022-12-29T17:07:58;13.77;;;3.63;;
18503;SDS011;9381;54.244;10.074;2022-12-29T17:13:00;12.93;;;2.70;;
18503;SDS011;9381;54.244;10.074;2022-12-29T17:18:01;15.53;;;3.00;;
18503;SDS011;9381;54.244;10.074;2022-12-29T17:23:04;13.63;;;3.60;;
18503;SDS011;9381;54.244;10.074;2022-12-29T17:28:19;11.83;;;3.00;;
18503;SDS011;9381;54.244;10.074;2022-12-29T17:33:26;11.70;;;2.83;;
18503;SDS011;9381;54.244;10.074;2022-12-29T17:38:39;11.40;;;3.00;;
18503;SDS011;9381;54.244;10.074;2022-12-29T17:43:39;12.93;;;2.70;;
18503;SDS011;9381;54.244;10.074;2022-12-29T17:48:40;15.30;;;3.00;;
18503;SDS011;9381;54.244;10.074;2022-12-29T17:53:40;11.40;;;2.60;;
18503;SDS011;9381;54.244;10.074;2022-12-29T17:58:40;8.30;;;3.00;;
18503;SDS011;9381;54.244;10.074;2022-12-29T18:03:41;8.57;;;2.78;;
18503;SDS011;9381;54.244;10.074;2022-12-29T18:08:41;16.20;;;3.92;;
18503;SDS011;9381;54.244;10.074;2022-12-29T18:13:43;11.87;;;3.33;;
18503;SDS011;9381;54.244;10.074;2022-12-29T18:18:43;14.55;;;3.60;;
18503;SDS011;9381;54.244;10.074;2022-12-29T18:23:44;13.07;;;3.43;;
18503;SDS011;9381;54.244;10.074;2022-12-29T18:28:45;13.53;;;2.93;;
18503;SDS011;9381;54.244;10.074;2022-12-29T18:33:48;9.77;;;3.23;;
18503;SDS011;9381;54.244;10.074;2022-12-29T18:38:50;10.80;;;3.30;;
18503;SDS011;9381;54.244;10.074;2022-12-29T18:43:52;20.90;;;5.07;;
18503;SDS011;9381;54.244;10.074;2022-12-29T18:48:53;19.03;;;3.87;;
18503;SDS011;9381;54.244;10.074;2022-12-29T18:53:53;12.82;;;3.70;;
18503;SDS011;9381;54.244;10.074;2022-12-29T18:58:53;16.40;;;4.30;;
18503;SDS011;9381;54.244;10.074;2022-12-29T19:03:55;14.20;;;3.70;;
18503;SDS011;9381;54.244;10.074;2022-12-29T19:08:55;18.58;;;4.65;;
18503;SDS011;9381;54.244;10.074;2022-12-29T19:13:56;18.77;;;3.95;;
18503;SDS011;9381;54.244;10.074;2022-12-29T19:18:56;8.47;;;3.60;;
18503;SDS011;9381;54.244;10.074;2022-12-29T19:23:58;12.33;;;3.87;;
18503;SDS011;9381;54.244;10.074;2022-12-29T19:28:59;10.90;;;3.23;;
18503;SDS011;9381;54.244;10.074;2022-12-29T19:34:00;12.23;;;3.43;;
18503;SDS011;9381;54.244;10.074;2022-12-29T19:39:02;18.47;;;3.73;;
18503;SDS011;9381;54.244;10.074;2022-12-29T19:44:02;11.33;;;3.70;;
18503;SDS011;9381;54.244;10.074;2022-12-29T19:49:02;12.07;;;3.53;;
18503;SDS011;9381;54.244;10.074;2022-12-29T19:54:03;10.40;;;3.17;;
18503;SDS011;9381;54.244;10.074;2022-12-29T19:59:03;15.90;;;4.13;;
18503;SDS011;9381;54.244;10.074;2022-12-29T20:04:03;14.60;;;3.53;;
18503;SDS011;9381;54.244;10.074;2022-12-29T20:09:04;10.45;;;4.05;;
18503;SDS011;9381;54.244;10.074;2022-12-29T20:14:05;14.23;;;3.77;;
18503;SDS011;9381;54.244;10.074;2022-12-29T20:19:05;13.47;;;3.70;;
18503;SDS011;9381;54.244;10.074;2022-12-29T20:24:06;15.27;;;4.50;;
18503;SDS011;9381;54.244;10.074;2022-12-29T20:29:07;9.70;;;3.67;;
18503;SDS011;9381;54.244;10.074;2022-12-29T20:34:07;15.40;;;4.07;;
18503;SDS011;9381;54.244;10.074;2022-12-29T20:39:11;10.40;;;2.80;;
18503;SDS011;9381;54.244;10.074;2022-12-29T20:44:14;8.23;;;3.00;;
18503;SDS011;9381;54.244;10.074;2022-12-29T20:49:14;6.57;;;2.35;;
18503;SDS011;9381;54.244;10.074;2022-12-29T20:54:14;8.88;;;3.55;;
18503;SDS011;9381;54.244;10.074;2022-12-29T20:59:15;5.47;;;2.00;;
18503;SDS011;9381;54.244;10.074;2022-12-29T21:04:17;4.93;;;1.70;;
18503;SDS011;9381;54.244;10.074;2022-12-29T21:09:17;6.27;;;1.70;;
18503;SDS011;9381;54.244;10.074;2022-12-29T21:14:19;6.50;;;1.70;;
18503;SDS011;9381;54.244;10.074;2022-12-29T21:19:20;6.53;;;2.23;;
18503;SDS011;9381;54.244;10.074;2022-12-29T21:24:20;7.10;;;2.00;;
18503;SDS011;9381;54.244;10.074;2022-12-29T21:29:20;5.68;;;2.25;;
18503;SDS011;9381;54.244;10.074;2022-12-29T21:34:21;7.07;;;2.27;;
18503;SDS011;9381;54.244;10.074;2022-12-29T21:39:21;5.13;;;2.47;;
18503;SDS011;9381;54.244;10.074;2022-12-29T21:44:21;5.25;;;2.80;;
18503;SDS011;9381;54.244;10.074;2022-12-29T21:49:40;12.03;;;3.33;;
18503;SDS011;9381;54.244;10.074;2022-12-29T21:54:41;11.82;;;3.63;;
18503;SDS011;9381;54.244;10.074;2022-12-29T21:59:59;12.83;;;2.90;;
18503;SDS011;9381;54.244;10.074;2022-12-29T22:05:18;10.23;;;3.57;;
18503;SDS011;9381;54.244;10.074;2022-12-29T22:10:38;9.43;;;3.23;;
18503;SDS011;9381;54.244;10.074;2022-12-29T22:15:58;10.90;;;3.40;;
18503;SDS011;9381;54.244;10.074;2022-12-29T22:21:01;12.80;;;3.20;;
18503;SDS011;9381;54.244;10.074;2022-12-29T22:26:07;10.70;;;3.60;;
18503;SDS011;9381;54.244;10.074;2022-12-29T22:31:19;15.73;;;4.00;;
18503;SDS011;9381;54.244;10.074;2022-12-29T22:36:24;14.03;;;3.73;;
18503;SDS011;9381;54.244;10.074;2022-12-29T22:41:25;12.23;;;3.00;;
18503;SDS011;9381;54.244;10.074;2022-12-29T22:46:25;17.87;;;4.10;;
18503;SDS011;9381;54.244;10.074;2022-12-29T22:51:25;12.27;;;4.13;;
18503;SDS011;9381;54.244;10.074;2022-12-29T22:56:26;19.53;;;4.20;;
18503;SDS011;9381;54.244;10.074;2022-12-29T23:01:26;18.83;;;4.55;;
18503;SDS011;9381;54.244;10.074;2022-12-29T23:06:27;17.20;;;4.20;;
18503;SDS011;9381;54.244;10.074;2022-12-29T23:11:27;14.43;;;3.70;;
18503;SDS011;9381;54.244;10.074;2022-12-29T23:16:30;16.23;;;4.93;;
18503;SDS011;9381;54.244;10.074;2022-12-29T23:21:31;17.90;;;4.18;;
18503;SDS011;9381;54.244;10.074;2022-12-29T23:26:35;17.03;;;3.63;;
18503;SDS011;9381;54.244;10.074;2022-12-29T23:31:38;16.10;;;3.73;;
18503;SDS011;9381;54.244;10.074;2022-12-29T23:36:39;13.40;;;3.57;;
18503;SDS011;9381;54.244;10.074;2022-12-29T23:41:39;17.80;;;3.60;;
18503;SDS011;9381;54.244;10.074;2022-12-29T23:46:39;13.60;;;3.70;;
18503;SDS011;9381;54.244;10.074;2022-12-29T23:51:40;18.50;;;3.90;;
18503;SDS011;9381;54.244;10.074;2022-12-29T23:56:40;14.83;;;3.73;;
